createdAt,value
2018-06-02T00:01:51.918Z,9.67
2018-06-02T00:04:20.353Z,9.60
2018-06-02T00:06:48.034Z,9.87
2018-06-02T00:09:15.671Z,9.70
2018-06-02T00:11:43.284Z,8.83
2018-06-02T00:14:11.022Z,10.13
2018-06-02T00:16:38.660Z,10.40
2018-06-02T00:19:06.303Z,10.43
2018-06-02T00:21:33.976Z,9.97
2018-06-02T00:24:01.627Z,9.53
2018-06-02T00:26:29.308Z,9.70
2018-06-02T00:28:56.932Z,9.17
2018-06-02T00:31:24.633Z,9.83
2018-06-02T00:33:52.196Z,9.83
2018-06-02T00:36:19.887Z,10.27
2018-06-02T00:38:47.489Z,9.70
2018-06-02T00:41:15.176Z,10.40
2018-06-02T00:43:42.826Z,9.87
2018-06-02T00:46:10.458Z,10.60
2018-06-02T00:48:38.144Z,9.80
2018-06-02T00:51:06.686Z,10.70
2018-06-02T00:53:34.388Z,10.37
2018-06-02T00:56:02.340Z,10.43
2018-06-02T00:58:30.694Z,10.67
2018-06-02T01:00:58.298Z,10.43
2018-06-02T01:03:26.651Z,10.87
2018-06-02T01:05:54.317Z,10.47
2018-06-02T01:08:21.888Z,11.57
2018-06-02T01:10:50.314Z,9.60
2018-06-02T01:13:17.945Z,9.20
2018-06-02T01:15:46.364Z,10.53
2018-06-02T01:18:13.964Z,10.83
2018-06-02T01:20:42.309Z,10.20
2018-06-02T01:23:09.939Z,10.03
2018-06-02T01:25:37.523Z,10.40
2018-06-02T01:28:05.168Z,9.77
2018-06-02T01:30:32.748Z,9.70
2018-06-02T01:33:00.433Z,10.93
2018-06-02T01:35:28.082Z,10.10
2018-06-02T01:37:55.668Z,10.90
2018-06-02T01:40:23.240Z,10.27
2018-06-02T01:42:51.698Z,10.10
2018-06-02T01:45:19.334Z,9.90
2018-06-02T01:47:46.941Z,10.80
2018-06-02T01:50:14.591Z,9.77
2018-06-02T01:52:42.924Z,9.27
2018-06-02T01:55:10.604Z,9.70
2018-06-02T01:57:38.211Z,9.70
2018-06-02T02:00:06.627Z,9.90
2018-06-02T02:02:34.316Z,9.20
2018-06-02T02:05:02.833Z,9.40
2018-06-02T02:07:30.496Z,9.43
2018-06-02T02:09:58.259Z,9.30
2018-06-02T02:12:25.931Z,9.10
2018-06-02T02:14:53.606Z,9.13
2018-06-02T02:17:21.237Z,8.70
2018-06-02T02:19:48.927Z,8.93
2018-06-02T02:22:16.500Z,10.00
2018-06-02T02:24:44.262Z,9.80
2018-06-02T02:27:11.831Z,9.23
2018-06-02T02:29:39.407Z,9.00
2018-06-02T02:32:07.125Z,8.80
2018-06-02T02:34:34.733Z,9.17
2018-06-02T02:37:02.506Z,9.20
2018-06-02T02:39:30.102Z,9.10
2018-06-02T02:41:58.499Z,8.40
2018-06-02T02:44:26.142Z,8.40
2018-06-02T02:46:54.550Z,8.23
2018-06-02T02:49:22.108Z,8.60
2018-06-02T02:51:49.777Z,9.13
2018-06-02T02:54:17.492Z,9.43
2018-06-02T02:56:45.163Z,9.43
2018-06-02T02:59:13.585Z,8.90
2018-06-02T03:01:41.369Z,9.27
2018-06-02T03:04:09.021Z,8.80
2018-06-02T03:06:36.653Z,7.53
2018-06-02T03:09:04.294Z,8.00
2018-06-02T03:11:31.999Z,7.73
2018-06-02T03:13:59.637Z,7.40
2018-06-02T03:16:27.261Z,7.50
2018-06-02T03:18:54.872Z,6.63
2018-06-02T03:21:22.541Z,6.70
2018-06-02T03:23:50.211Z,7.13
2018-06-02T03:26:17.887Z,6.57
2018-06-02T03:28:45.549Z,7.03
2018-06-02T03:31:13.171Z,7.00
2018-06-02T03:33:40.821Z,6.63
2018-06-02T03:36:08.440Z,7.33
2018-06-02T03:38:36.151Z,6.47
2018-06-02T03:41:03.779Z,6.97
2018-06-02T03:43:31.450Z,6.60
2018-06-02T03:45:59.055Z,7.20
2018-06-02T03:48:26.651Z,6.20
2018-06-02T03:50:54.412Z,5.80
2018-06-02T03:53:22.142Z,6.13
2018-06-02T03:55:49.761Z,6.40
2018-06-02T03:58:17.349Z,6.10
2018-06-02T04:00:45.023Z,5.83
2018-06-02T04:03:13.450Z,6.13
2018-06-02T04:05:41.047Z,7.20
2018-06-02T04:08:08.673Z,6.33
2018-06-02T04:10:37.214Z,6.40
2018-06-02T04:13:04.854Z,5.77
2018-06-02T04:15:32.561Z,5.83
2018-06-02T04:18:00.173Z,5.47
2018-06-02T04:20:27.824Z,5.60
2018-06-02T04:22:55.422Z,5.67
2018-06-02T04:25:23.172Z,6.07
2018-06-02T04:27:50.776Z,5.60
2018-06-02T04:30:18.489Z,5.60
2018-06-02T04:32:46.087Z,5.83
2018-06-02T04:35:18.409Z,6.27
2018-06-02T04:37:46.813Z,5.80
2018-06-02T04:40:14.440Z,5.90
2018-06-02T04:42:42.065Z,5.63
2018-06-02T04:45:09.767Z,5.70
2018-06-02T04:47:37.442Z,5.37
2018-06-02T04:50:05.137Z,5.20
2018-06-02T04:52:32.784Z,4.87
2018-06-02T04:55:00.472Z,4.63
2018-06-02T04:57:28.228Z,4.40
2018-06-02T04:59:55.979Z,4.10
2018-06-02T05:02:23.617Z,4.03
2018-06-02T05:04:51.236Z,3.80
2018-06-02T05:07:18.895Z,3.87
2018-06-02T05:09:46.544Z,3.97
2018-06-02T05:12:14.316Z,3.53
2018-06-02T05:14:42.713Z,3.80
2018-06-02T05:17:10.373Z,3.60
2018-06-02T05:19:38.023Z,3.37
2018-06-02T05:22:05.701Z,3.17
2018-06-02T05:24:33.328Z,2.97
2018-06-02T05:27:01.021Z,3.07
2018-06-02T05:29:28.752Z,3.17
2018-06-02T05:31:56.481Z,3.03
2018-06-02T05:34:24.121Z,3.23
2018-06-02T05:36:51.799Z,3.03
2018-06-02T05:39:20.218Z,2.97
2018-06-02T05:41:47.831Z,2.70
2018-06-02T05:44:15.509Z,2.70
2018-06-02T05:46:43.967Z,2.83
2018-06-02T05:49:11.646Z,2.57
2018-06-02T05:51:39.282Z,2.50
2018-06-02T05:54:06.925Z,2.70
2018-06-02T05:56:34.567Z,2.67
2018-06-02T05:59:02.252Z,2.77
2018-06-02T06:01:29.887Z,2.47
2018-06-02T06:03:57.571Z,2.70
2018-06-02T06:06:25.173Z,2.67
2018-06-02T06:08:53.223Z,2.80
2018-06-02T06:11:20.857Z,2.77
2018-06-02T06:13:48.580Z,2.70
2018-06-02T06:16:16.176Z,2.90
2018-06-02T06:18:43.711Z,2.30
2018-06-02T06:21:11.832Z,2.40
2018-06-02T06:23:39.427Z,2.20
2018-06-02T06:26:07.053Z,2.10
2018-06-02T06:28:34.679Z,2.53
2018-06-02T06:31:02.395Z,2.20
2018-06-02T06:33:30.036Z,2.50
2018-06-02T06:35:57.710Z,2.50
2018-06-02T06:38:25.371Z,2.40
2018-06-02T06:40:52.963Z,2.33
2018-06-02T06:43:20.615Z,2.30
2018-06-02T06:45:48.262Z,2.57
2018-06-02T06:48:15.832Z,2.33
2018-06-02T06:50:43.609Z,2.63
2018-06-02T06:53:11.237Z,2.50
2018-06-02T06:55:38.925Z,2.17
2018-06-02T06:58:06.580Z,2.40
2018-06-02T07:00:34.299Z,2.10
2018-06-02T07:03:01.876Z,2.20
2018-06-02T07:05:29.475Z,2.30
2018-06-02T07:07:57.175Z,2.47
2018-06-02T07:10:24.758Z,1.87
2018-06-02T07:12:52.510Z,2.60
2018-06-02T07:15:20.106Z,2.23
2018-06-02T07:17:47.917Z,2.30
2018-06-02T07:20:15.501Z,2.20
2018-06-02T07:22:43.131Z,2.23
2018-06-02T07:25:10.665Z,2.20
2018-06-02T07:27:38.319Z,2.20
2018-06-02T07:30:05.924Z,2.20
2018-06-02T07:32:33.585Z,2.23
2018-06-02T07:35:01.211Z,2.33
2018-06-02T07:37:28.967Z,2.27
2018-06-02T07:39:56.571Z,2.40
2018-06-02T07:42:24.235Z,2.67
2018-06-02T07:44:52.699Z,2.70
2018-06-02T07:47:20.300Z,2.30
2018-06-02T07:49:47.922Z,2.50
2018-06-02T07:52:15.543Z,2.20
2018-06-02T07:54:43.259Z,2.10
2018-06-02T07:57:11.718Z,2.20
2018-06-02T07:59:39.473Z,2.33
2018-06-02T08:02:07.117Z,2.13
2018-06-02T08:04:35.265Z,2.47
2018-06-02T08:07:03.011Z,2.30
2018-06-02T08:09:30.709Z,2.60
2018-06-02T08:11:58.350Z,2.63
2018-06-02T08:14:26.073Z,2.83
2018-06-02T08:16:53.773Z,2.60
2018-06-02T08:19:21.402Z,2.63
2018-06-02T08:21:49.889Z,2.77
2018-06-02T08:24:17.469Z,2.83
2018-06-02T08:26:45.335Z,2.47
2018-06-02T08:29:12.957Z,2.30
2018-06-02T08:31:40.729Z,2.40
2018-06-02T08:34:09.130Z,2.00
2018-06-02T08:36:36.729Z,2.50
2018-06-02T08:39:04.380Z,2.47
2018-06-02T08:41:32.111Z,2.40
2018-06-02T08:43:59.632Z,2.40
2018-06-02T08:46:27.237Z,2.60
2018-06-02T08:48:54.788Z,2.50
2018-06-02T08:51:23.206Z,2.20
2018-06-02T08:53:50.745Z,2.40
2018-06-02T08:56:19.157Z,2.57
2018-06-02T08:58:46.755Z,2.53
2018-06-02T09:01:14.374Z,2.47
2018-06-02T09:03:41.889Z,2.50
2018-06-02T09:06:10.283Z,2.93
2018-06-02T09:08:38.624Z,2.30
2018-06-02T09:11:06.233Z,2.50
2018-06-02T09:13:33.843Z,2.53
2018-06-02T09:16:01.389Z,2.20
2018-06-02T09:18:29.019Z,2.30
2018-06-02T09:20:56.712Z,2.07
2018-06-02T09:23:24.468Z,2.00
2018-06-02T09:25:52.039Z,2.20
2018-06-02T09:28:19.630Z,2.10
2018-06-02T09:30:47.939Z,1.80
2018-06-02T09:33:15.519Z,2.00
2018-06-02T09:35:43.117Z,2.10
2018-06-02T09:38:10.689Z,2.07
2018-06-02T09:40:38.236Z,2.20
2018-06-02T09:43:05.812Z,2.43
2018-06-02T09:45:33.361Z,2.20
2018-06-02T09:48:01.084Z,2.37
2018-06-02T09:50:28.623Z,2.63
2018-06-02T09:52:56.207Z,2.37
2018-06-02T09:55:23.759Z,2.20
2018-06-02T09:57:51.368Z,2.00
2018-06-02T10:00:25.322Z,2.10
2018-06-02T10:02:52.921Z,2.10
2018-06-02T10:05:20.525Z,2.20
2018-06-02T10:07:48.881Z,2.23
2018-06-02T10:10:16.461Z,2.30
2018-06-02T10:12:44.772Z,2.60
2018-06-02T10:15:12.345Z,2.00
2018-06-02T10:17:39.866Z,1.80
2018-06-02T10:20:07.460Z,2.37
2018-06-02T10:22:35.025Z,1.73
2018-06-02T10:25:02.673Z,1.70
2018-06-02T10:27:30.217Z,1.50
2018-06-02T10:29:57.807Z,1.60
2018-06-02T10:32:25.377Z,1.70
2018-06-02T10:34:52.939Z,2.03
2018-06-02T10:37:21.311Z,1.73
2018-06-02T10:39:48.900Z,2.23
2018-06-02T10:42:16.519Z,2.07
2018-06-02T10:44:44.105Z,1.70
2018-06-02T10:47:11.643Z,2.00
2018-06-02T10:49:39.251Z,2.13
2018-06-02T10:52:07.558Z,2.20
2018-06-02T10:54:35.115Z,2.20
2018-06-02T10:57:02.677Z,2.30
2018-06-02T10:59:30.208Z,2.30
2018-06-02T11:01:57.768Z,2.30
2018-06-02T11:04:26.074Z,2.30
2018-06-02T11:06:53.653Z,2.37
2018-06-02T11:09:21.221Z,2.23
2018-06-02T11:11:48.793Z,2.60
2018-06-02T11:14:16.298Z,2.20
2018-06-02T11:16:44.623Z,2.20
2018-06-02T11:19:12.165Z,2.37
2018-06-02T11:21:39.764Z,2.30
2018-06-02T11:24:07.288Z,2.60
2018-06-02T11:26:34.863Z,2.30
2018-06-02T11:29:02.409Z,2.30
2018-06-02T11:31:30.005Z,2.20
2018-06-02T11:33:58.043Z,2.58
2018-06-02T11:36:26.393Z,2.70
2018-06-02T11:38:53.944Z,2.17
2018-06-02T11:41:21.514Z,2.25
2018-06-02T11:43:49.043Z,2.33
2018-06-02T11:46:17.431Z,2.40
2018-06-02T11:48:44.980Z,2.28
2018-06-02T11:51:13.306Z,2.35
2018-06-02T11:53:40.957Z,2.67
2018-06-02T11:56:08.505Z,2.00
2018-06-02T11:58:36.099Z,2.62
2018-06-02T12:01:03.671Z,2.50
2018-06-02T12:03:31.229Z,2.20
2018-06-02T12:05:58.794Z,1.90
2018-06-02T12:08:26.402Z,2.28
2018-06-02T12:10:53.981Z,1.98
2018-06-02T12:13:21.577Z,2.12
2018-06-02T12:15:49.097Z,2.05
2018-06-02T12:18:16.685Z,2.37
2018-06-02T12:20:44.257Z,2.10
2018-06-02T12:23:11.834Z,2.10
2018-06-02T12:25:39.406Z,1.90
2018-06-02T12:28:07.001Z,2.10
2018-06-02T12:30:34.553Z,2.17
2018-06-02T12:33:02.180Z,2.08
2018-06-02T12:35:29.732Z,2.20
2018-06-02T12:37:57.304Z,1.85
2018-06-02T12:40:24.865Z,1.87
2018-06-02T12:42:53.240Z,2.17
2018-06-02T12:45:20.809Z,2.30
2018-06-02T12:47:49.126Z,2.00
2018-06-02T12:50:16.695Z,2.10
2018-06-02T12:52:44.315Z,1.90
2018-06-02T12:55:11.913Z,2.25
2018-06-02T12:57:39.514Z,2.00
2018-06-02T13:00:07.208Z,2.42
2018-06-02T13:02:34.752Z,2.30
2018-06-02T13:05:02.353Z,2.60
2018-06-02T13:07:29.901Z,2.12
2018-06-02T13:09:57.539Z,2.05
2018-06-02T13:12:25.083Z,2.33
2018-06-02T13:14:52.627Z,2.50
2018-06-02T13:17:20.205Z,2.08
2018-06-02T13:19:48.522Z,2.37
2018-06-02T13:22:16.099Z,2.33
2018-06-02T13:24:43.647Z,2.40
2018-06-02T13:27:11.236Z,2.50
2018-06-02T13:29:38.756Z,2.62
2018-06-02T13:32:06.305Z,2.30
2018-06-02T13:34:33.838Z,2.28
2018-06-02T13:37:01.901Z,2.50
2018-06-02T13:39:29.455Z,2.25
2018-06-02T13:41:57.021Z,2.30
2018-06-02T13:44:24.543Z,2.75
2018-06-02T13:46:52.895Z,2.50
2018-06-02T13:49:20.434Z,2.67
2018-06-02T13:51:48.761Z,2.83
2018-06-02T13:54:16.275Z,2.62
2018-06-02T13:56:44.605Z,3.08
2018-06-02T13:59:12.152Z,2.37
2018-06-02T14:01:39.734Z,2.37
2018-06-02T14:04:07.277Z,2.45
2018-06-02T14:06:37.443Z,2.70
2018-06-02T14:09:05.636Z,2.65
2018-06-02T14:11:33.912Z,2.75
2018-06-02T14:14:01.459Z,2.35
2018-06-02T14:16:28.985Z,2.45
2018-06-02T14:18:57.395Z,2.40
2018-06-02T14:21:24.950Z,2.70
2018-06-02T14:23:52.499Z,2.37
2018-06-02T14:26:19.998Z,2.43
2018-06-02T14:28:47.542Z,2.67
2018-06-02T14:31:15.835Z,2.40
2018-06-02T14:33:43.389Z,2.70
2018-06-02T14:36:10.903Z,2.87
2018-06-02T14:38:38.455Z,2.30
2018-06-02T14:41:05.990Z,2.60
2018-06-02T14:43:33.569Z,2.57
2018-06-02T14:46:01.120Z,2.60
2018-06-02T14:48:28.639Z,2.90
2018-06-02T14:50:56.961Z,2.80
2018-06-02T14:53:24.474Z,2.80
2018-06-02T14:55:52.272Z,2.73
2018-06-02T14:58:19.771Z,3.10
2018-06-02T15:00:47.350Z,3.00
2018-06-02T15:03:14.883Z,3.00
2018-06-02T15:05:42.427Z,3.40
2018-06-02T15:08:09.939Z,3.23
2018-06-02T15:10:37.525Z,3.20
2018-06-02T15:13:05.071Z,3.23
2018-06-02T15:15:32.660Z,3.40
2018-06-02T15:18:00.184Z,3.20
2018-06-02T15:20:27.799Z,3.40
2018-06-02T15:22:55.339Z,2.80
2018-06-02T15:25:22.914Z,3.03
2018-06-02T15:27:50.481Z,2.90
2018-06-02T15:30:18.008Z,3.00
2018-06-02T15:32:45.594Z,2.90
2018-06-02T15:35:13.145Z,2.90
2018-06-02T15:37:40.784Z,3.20
2018-06-02T15:40:08.304Z,3.30
2018-06-02T15:42:36.641Z,3.00
2018-06-02T15:45:04.188Z,3.10
2018-06-02T15:47:31.811Z,3.20
2018-06-02T15:49:59.368Z,2.77
2018-06-02T15:52:27.703Z,2.80
2018-06-02T15:54:55.249Z,3.00
2018-06-02T15:57:22.813Z,2.80
2018-06-02T15:59:50.341Z,3.00
2018-06-02T16:02:17.905Z,2.80
2018-06-02T16:04:45.486Z,2.73
2018-06-02T16:07:13.033Z,3.23
2018-06-02T16:09:40.594Z,5.07
2018-06-02T16:12:08.116Z,3.60
2018-06-02T16:14:36.447Z,3.63
2018-06-02T16:17:03.975Z,3.27
2018-06-02T16:19:31.550Z,3.33
2018-06-02T16:21:59.105Z,3.50
2018-06-02T16:24:26.687Z,3.40
2018-06-02T16:26:55.025Z,3.07
2018-06-02T16:29:22.639Z,3.47
2018-06-02T16:31:50.260Z,3.23
2018-06-02T16:34:17.851Z,3.20
2018-06-02T16:36:45.675Z,2.80
2018-06-02T16:39:13.270Z,3.50
2018-06-02T16:41:40.809Z,3.70
2018-06-02T16:44:08.406Z,4.00
2018-06-02T16:46:35.970Z,3.73
2018-06-02T16:49:03.564Z,4.03
2018-06-02T16:51:31.865Z,3.93
2018-06-02T16:53:59.438Z,4.27
2018-06-02T16:56:27.000Z,4.40
2018-06-02T16:58:54.571Z,4.23
2018-06-02T17:01:22.122Z,4.03
2018-06-02T17:03:49.644Z,4.80
2018-06-02T17:06:17.265Z,5.10
2018-06-02T17:08:44.784Z,5.33
2018-06-02T17:11:12.352Z,5.57
2018-06-02T17:13:39.912Z,4.63
2018-06-02T17:16:07.446Z,4.17
2018-06-02T17:18:34.973Z,4.37
2018-06-02T17:21:02.521Z,4.50
2018-06-02T17:23:30.035Z,4.80
2018-06-02T17:25:57.604Z,5.13
2018-06-02T17:28:25.187Z,5.60
2018-06-02T17:30:52.794Z,5.30
2018-06-02T17:33:20.318Z,5.03
2018-06-02T17:35:47.843Z,4.17
2018-06-02T17:38:15.398Z,4.00
2018-06-02T17:40:42.907Z,4.77
2018-06-02T17:43:10.446Z,4.47
2018-06-02T17:45:37.970Z,4.40
2018-06-02T17:48:05.506Z,4.43
2018-06-02T17:50:33.799Z,5.23
2018-06-02T17:53:01.351Z,4.90
2018-06-02T17:55:28.860Z,4.10
2018-06-02T17:57:56.396Z,4.70
2018-06-02T18:00:23.914Z,5.00
2018-06-02T18:02:51.484Z,5.00
2018-06-02T18:05:18.995Z,4.80
2018-06-02T18:07:46.538Z,5.70
2018-06-02T18:10:14.050Z,4.37
2018-06-02T18:12:42.377Z,4.37
2018-06-02T18:15:09.878Z,4.23
2018-06-02T18:17:37.440Z,4.53
2018-06-02T18:20:04.982Z,5.28
2018-06-02T18:22:32.551Z,4.40
2018-06-02T18:25:00.059Z,4.30
2018-06-02T18:27:27.598Z,4.37
2018-06-02T18:29:55.124Z,3.67
2018-06-02T18:32:22.656Z,3.90
2018-06-02T18:34:50.213Z,3.50
2018-06-02T18:37:17.722Z,4.10
2018-06-02T18:39:45.256Z,4.43
2018-06-02T18:42:12.808Z,10.30
2018-06-02T18:44:40.384Z,7.50
2018-06-02T18:47:07.922Z,7.47
2018-06-02T18:49:35.472Z,3.87
2018-06-02T18:52:02.989Z,3.77
2018-06-02T18:54:30.564Z,4.00
2018-06-02T18:56:58.094Z,3.50
2018-06-02T18:59:25.648Z,3.40
2018-06-02T19:01:53.180Z,3.47
2018-06-02T19:04:20.684Z,3.40
2018-06-02T19:06:48.240Z,3.57
2018-06-02T19:09:16.529Z,3.47
2018-06-02T19:11:44.852Z,3.77
2018-06-02T19:14:12.380Z,4.13
2018-06-02T19:16:39.946Z,3.00
2018-06-02T19:19:07.456Z,3.40
2018-06-02T19:21:35.033Z,4.37
2018-06-02T19:24:02.552Z,3.43
2018-06-02T19:26:30.107Z,3.45
2018-06-02T19:28:57.628Z,3.00
2018-06-02T19:31:25.184Z,2.97
2018-06-02T19:33:52.712Z,3.13
2018-06-02T19:36:20.285Z,3.30
2018-06-02T19:38:47.848Z,3.40
2018-06-02T19:41:16.120Z,3.43
2018-06-02T19:43:44.459Z,3.50
2018-06-02T19:46:12.091Z,3.27
2018-06-02T19:48:39.666Z,3.03
2018-06-02T19:51:07.240Z,3.20
2018-06-02T19:53:34.783Z,2.90
2018-06-02T19:56:02.343Z,3.43
2018-06-02T19:58:29.941Z,3.17
2018-06-02T20:00:57.489Z,2.90
2018-06-02T20:03:25.058Z,3.10
2018-06-02T20:05:52.560Z,3.10
2018-06-02T20:08:20.877Z,3.47
2018-06-02T20:10:48.390Z,3.20
2018-06-02T20:13:16.700Z,3.23
2018-06-02T20:15:44.404Z,3.27
2018-06-02T20:18:11.944Z,3.33
2018-06-02T20:20:39.466Z,3.50
2018-06-02T20:23:07.027Z,3.27
2018-06-02T20:25:35.307Z,3.40
2018-06-02T20:28:02.823Z,3.47
2018-06-02T20:30:30.372Z,3.50
2018-06-02T20:32:57.882Z,3.90
2018-06-02T20:35:25.486Z,3.87
2018-06-02T20:37:53.003Z,3.40
2018-06-02T20:40:20.557Z,3.50
2018-06-02T20:42:48.262Z,2.97
2018-06-02T20:45:15.824Z,2.90
2018-06-02T20:47:43.372Z,2.87
2018-06-02T20:50:10.916Z,2.97
2018-06-02T20:52:38.422Z,3.30
2018-06-02T20:55:05.981Z,3.90
2018-06-02T20:57:34.634Z,3.60
2018-06-02T21:00:02.208Z,3.83
2018-06-02T21:02:29.731Z,3.70
2018-06-02T21:04:57.301Z,3.60
2018-06-02T21:07:24.814Z,4.20
2018-06-02T21:09:52.328Z,4.17
2018-06-02T21:12:19.866Z,4.07
2018-06-02T21:14:48.691Z,3.97
2018-06-02T21:17:16.237Z,3.30
2018-06-02T21:19:43.752Z,4.00
2018-06-02T21:22:11.293Z,3.57
2018-06-02T21:24:38.808Z,3.80
2018-06-02T21:27:06.382Z,4.33
2018-06-02T21:29:33.908Z,4.90
2018-06-02T21:32:01.476Z,5.33
2018-06-02T21:34:28.988Z,5.43
2018-06-02T21:36:56.550Z,5.47
2018-06-02T21:39:24.064Z,4.90
2018-06-02T21:41:51.640Z,4.77
2018-06-02T21:44:19.155Z,4.07
2018-06-02T21:46:46.665Z,5.17
2018-06-02T21:49:14.209Z,4.27
2018-06-02T21:51:41.739Z,4.60
2018-06-02T21:54:13.919Z,4.40
2018-06-02T21:56:41.453Z,4.63
2018-06-02T21:59:09.761Z,4.30
2018-06-02T22:01:37.277Z,4.07
2018-06-02T22:04:05.609Z,4.00
2018-06-02T22:06:33.128Z,3.77
2018-06-02T22:09:00.694Z,3.63
2018-06-02T22:11:28.223Z,4.00
2018-06-02T22:13:55.778Z,3.40
2018-06-02T22:16:23.285Z,3.27
2018-06-02T22:18:50.842Z,3.60
2018-06-02T22:21:18.342Z,3.80
2018-06-02T22:23:46.653Z,3.20
2018-06-02T22:26:14.926Z,3.47
2018-06-02T22:28:42.430Z,3.30
2018-06-02T22:31:09.972Z,3.47
2018-06-02T22:33:37.482Z,3.20
2018-06-02T22:36:05.028Z,3.50
2018-06-02T22:38:32.546Z,3.47
2018-06-02T22:41:00.092Z,3.07
2018-06-02T22:43:27.616Z,3.40
2018-06-02T22:45:55.158Z,3.00
2018-06-02T22:48:22.668Z,3.63
2018-06-02T22:50:50.225Z,3.63
2018-06-02T22:53:17.769Z,3.60
2018-06-02T22:55:45.349Z,4.00
2018-06-02T22:58:12.872Z,3.40
2018-06-02T23:00:40.433Z,3.20
2018-06-02T23:03:07.963Z,3.90
2018-06-02T23:05:35.527Z,3.60
2018-06-02T23:08:03.038Z,3.47
2018-06-02T23:10:31.334Z,3.27
2018-06-02T23:12:58.878Z,3.50
2018-06-02T23:15:26.400Z,3.67
2018-06-02T23:17:53.944Z,3.27
2018-06-02T23:20:21.456Z,3.33
2018-06-02T23:22:49.764Z,3.07
2018-06-02T23:25:17.287Z,3.20
2018-06-02T23:27:46.020Z,3.10
2018-06-02T23:30:13.536Z,3.30
2018-06-02T23:32:41.092Z,3.07
2018-06-02T23:35:09.367Z,3.43
2018-06-02T23:37:37.883Z,3.50
2018-06-02T23:40:05.419Z,3.13
2018-06-02T23:42:32.931Z,3.13
2018-06-02T23:45:00.474Z,2.93
2018-06-02T23:47:27.975Z,3.30
2018-06-02T23:49:55.540Z,2.93
2018-06-02T23:52:23.840Z,2.87
2018-06-02T23:54:51.377Z,2.90
2018-06-02T23:57:18.885Z,3.10
2018-06-02T23:59:46.430Z,2.90
